Time;durP1;ratioP1;P1;durP2;ratioP2;P2;SDS_P1;SDS_P2;PMS_P1;PMS_P2;Temp;Humidity;BMP_temperature;BMP_pressure;BME280_temperature;BME280_humidity;BME280_pressure;Samples;Min_cycle;Max_cycle;Signal;HPM_P1;HPM_P2
2022/01/24 00:01:07;;;;;;;7.57;5.53;;;5.80;99.90;;;;;;5063757;28;20032;-62
2022/01/24 00:03:33;;;;;;;6.13;4.45;;;5.90;99.90;;;;;;5095907;28;20047;-62
2022/01/24 00:05:58;;;;;;;7.20;5.18;;;5.80;99.90;;;;;;5078246;28;20048;-62
2022/01/24 00:08:24;;;;;;;6.95;4.70;;;5.90;99.90;;;;;;5061482;28;20043;-62
2022/01/24 00:10:52;;;;;;;6.05;4.85;;;;;;;;;;5096076;28;20056;-62
2022/01/24 00:16:14;;;;;;;7.93;5.32;;;5.80;99.90;;;;;;5096541;28;20508;-62
2022/01/24 00:26:42;;;;;;;7.03;4.90;;;5.80;99.90;;;;;;5095927;28;20103;-62
2022/01/24 00:26:57;;;;;;;7.65;5.30;;;5.70;99.90;;;;;;5095754;28;20078;-62
2022/01/24 00:29:25;;;;;;;5.45;4.65;;;5.70;99.90;;;;;;5077421;28;20048;-62
2022/01/24 00:31:52;;;;;;;6.05;4.75;;;5.70;99.90;;;;;;5077443;28;20596;-62
2022/01/24 00:34:18;;;;;;;5.75;5.10;;;5.80;99.90;;;;;;5062138;28;20051;-62
2022/01/24 00:36:48;;;;;;;6.93;5.15;;;5.70;99.90;;;;;;5057462;28;20483;-63
2022/01/24 00:39:14;;;;;;;7.18;4.68;;;5.70;99.90;;;;;;5072824;28;20044;-62
2022/01/24 00:41:45;;;;;;;6.97;4.63;;;5.60;99.90;;;;;;5057476;28;20530;-62
2022/01/24 00:47:11;;;;;;;7.32;4.38;;;;;;;;;;5057257;28;20402;-62
2022/01/24 00:52:57;;;;;;;7.53;5.15;;;5.80;99.90;;;;;;5075143;28;20045;-62
2022/01/24 00:55:15;;;;;;;6.60;5.25;;;5.70;99.90;;;;;;5053996;28;20045;-63
2022/01/24 00:57:41;;;;;;;6.40;5.20;;;;;;;;;;5056399;28;20043;-63
2022/01/24 01:00:08;;;;;;;8.52;5.10;;;5.70;99.90;;;;;;5037880;28;20040;-62
2022/01/24 01:02:33;;;;;;;6.32;4.85;;;5.60;99.90;;;;;;5037207;28;20037;-63
2022/01/24 01:05:11;;;;;;;7.38;5.20;;;5.90;99.90;;;;;;5037770;28;20037;-63
2022/01/24 01:07:53;;;;;;;7.43;5.20;;;5.70;99.90;;;;;;5037831;28;20116;-63
2022/01/24 01:18:34;;;;;;;6.63;5.15;;;5.60;99.90;;;;;;5054980;28;20068;-63
2022/01/24 01:21:14;;;;;;;6.40;5.15;;;;;;;;;;5038455;28;20041;-63
2022/01/24 01:23:49;;;;;;;6.75;5.45;;;5.70;99.90;;;;;;5037809;28;20525;-63
2022/01/24 01:29:16;;;;;;;7.70;5.50;;;5.60;99.90;;;;;;5055478;28;20041;-63
2022/01/24 01:34:25;;;;;;;5.35;4.43;;;;;;;;;;5037325;28;20041;-63
2022/01/24 01:55:40;;;;;;;9.88;6.70;;;5.50;99.90;;;;;;5057923;28;20052;-63
2022/01/24 01:58:17;;;;;;;8.80;6.35;;;5.50;99.90;;;;;;5072949;28;20048;-63
2022/01/24 02:00:48;;;;;;;9.10;6.78;;;5.30;99.90;;;;;;5073701;28;20051;-63
2022/01/24 02:03:14;;;;;;;11.57;7.65;;;;;;;;;;5057166;28;20048;-62
2022/01/24 02:05:40;;;;;;;12.10;7.80;;;5.50;99.90;;;;;;5058108;28;20133;-62
2022/01/24 02:08:06;;;;;;;10.77;8.00;;;5.50;99.90;;;;;;5073615;28;20048;-63
2022/01/24 02:10:35;;;;;;;11.45;8.30;;;5.60;99.90;;;;;;5074760;28;20033;-64
2022/01/24 02:13:01;;;;;;;11.00;7.82;;;5.70;99.90;;;;;;5056836;28;20040;-62
2022/01/24 02:15:39;;;;;;;11.25;7.95;;;5.40;99.90;;;;;;5057035;28;20045;-63
2022/01/24 02:18:14;;;;;;;14.15;8.85;;;5.50;99.90;;;;;;5040913;28;20072;-63
2022/01/24 02:23:37;;;;;;;13.68;8.90;;;5.80;99.90;;;;;;5075484;28;20052;-63
2022/01/24 02:26:08;;;;;;;14.35;9.32;;;5.60;99.90;;;;;;5075338;28;20036;-62
2022/01/24 02:28:54;;;;;;;12.80;9.65;;;5.60;99.90;;;;;;5056686;28;20604;-63
2022/01/24 02:31:39;;;;;;;16.77;9.93;;;5.90;99.90;;;;;;5040489;28;20048;-63
2022/01/24 02:34:30;;;;;;;15.98;10.52;;;5.60;99.90;;;;;;5073270;28;20094;-63
2022/01/24 02:37:00;;;;;;;15.35;10.35;;;5.50;99.90;;;;;;5075324;28;20062;-63
2022/01/24 02:39:45;;;;;;;15.18;10.43;;;5.50;99.90;;;;;;5073673;28;20486;-63
2022/01/24 02:52:55;;;;;;;17.98;11.13;;;5.50;99.90;;;;;;5056697;28;20049;-63
2022/01/24 02:55:21;;;;;;;17.80;11.38;;;5.50;99.90;;;;;;5057225;28;20070;-63
2022/01/24 02:57:47;;;;;;;17.50;11.10;;;5.50;99.90;;;;;;5056756;28;20475;-63
2022/01/24 03:00:13;;;;;;;20.40;11.10;;;5.40;99.90;;;;;;5056534;28;20059;-63
2022/01/24 03:02:39;;;;;;;18.58;12.45;;;5.60;99.90;;;;;;5058739;28;20048;-63
2022/01/24 03:05:04;;;;;;;17.15;11.02;;;5.60;99.90;;;;;;5078258;28;20056;-62
2022/01/24 03:07:31;;;;;;;14.93;10.32;;;5.70;99.90;;;;;;5077962;28;20044;-63
2022/01/24 03:09:58;;;;;;;18.58;10.02;;;;;;;;;;5043055;28;20383;-63
2022/01/24 03:12:44;;;;;;;16.00;10.25;;;5.50;99.90;;;;;;5059167;28;20108;-63
2022/01/24 03:15:10;;;;;;;15.60;10.80;;;5.60;99.90;;;;;;5060208;28;20487;-63
2022/01/24 03:17:36;;;;;;;18.73;11.85;;;5.30;99.90;;;;;;5060320;28;20051;-62
2022/01/24 03:20:04;;;;;;;15.00;10.27;;;5.30;99.90;;;;;;5060524;28;20048;-63
2022/01/24 03:22:29;;;;;;;17.80;10.82;;;5.40;99.90;;;;;;5060110;28;20041;-63
2022/01/24 03:24:55;;;;;;;16.00;10.77;;;5.50;99.90;;;;;;5059907;28;20052;-63
2022/01/24 03:27:20;;;;;;;15.23;9.68;;;5.50;99.90;;;;;;5060010;28;20084;-63
2022/01/24 03:29:46;;;;;;;16.85;11.13;;;5.50;99.90;;;;;;5077638;28;20041;-63
2022/01/24 03:32:12;;;;;;;18.48;11.63;;;;;;;;;;5077976;28;20112;-63
2022/01/24 03:34:37;;;;;;;14.60;10.52;;;5.50;99.90;;;;;;5059116;28;20072;-63
2022/01/24 03:37:03;;;;;;;15.75;9.85;;;5.50;99.90;;;;;;5077236;28;20043;-63
2022/01/24 03:39:29;;;;;;;15.63;10.23;;;5.50;99.90;;;;;;5059670;28;20044;-63
2022/01/24 03:41:54;;;;;;;16.35;11.15;;;5.50;99.90;;;;;;5059342;28;20501;-63
2022/01/24 03:44:20;;;;;;;18.58;10.50;;;5.60;99.90;;;;;;5077497;28;20044;-63
2022/01/24 03:46:49;;;;;;;16.52;10.18;;;;;;;;;;5026533;28;20040;-61
2022/01/24 03:49:45;;;;;;;15.73;10.38;;;5.10;99.90;;;;;;5059142;28;20060;-63
2022/01/24 03:52:07;;;;;;;15.52;10.18;;;5.40;99.90;;;;;;5059277;28;20079;-63
2022/01/24 03:54:33;;;;;;;15.32;9.88;;;5.40;99.90;;;;;;5077306;28;20086;-63
2022/01/24 03:56:58;;;;;;;15.50;9.93;;;5.30;99.90;;;;;;5076181;28;20082;-63
2022/01/24 03:59:24;;;;;;;14.05;8.98;;;5.30;99.90;;;;;;5077355;28;20035;-63
2022/01/24 04:01:49;;;;;;;14.18;8.85;;;5.50;99.90;;;;;;5075622;28;20067;-63
2022/01/24 04:04:15;;;;;;;13.90;9.15;;;5.50;99.90;;;;;;5076372;28;20157;-63
2022/01/24 04:06:41;;;;;;;14.57;8.73;;;5.50;99.90;;;;;;5059138;28;20102;-63
2022/01/24 04:09:06;;;;;;;13.13;8.90;;;5.40;99.90;;;;;;5059395;28;20066;-63
2022/01/24 04:11:36;;;;;;;12.30;8.52;;;5.40;99.90;;;;;;5058800;28;20098;-63
2022/01/24 04:14:22;;;;;;;11.52;8.82;;;5.30;99.90;;;;;;5075484;28;20032;-63
2022/01/24 04:17:09;;;;;;;13.18;8.63;;;5.40;99.90;;;;;;5076236;28;20040;-63
2022/01/24 04:22:07;;;;;;;13.48;9.63;;;5.60;99.90;;;;;;5058555;28;20040;-63
2022/01/24 04:24:33;;;;;;;12.68;8.55;;;5.40;99.90;;;;;;5058877;28;20044;-62
2022/01/24 04:26:59;;;;;;;14.13;8.93;;;5.40;99.90;;;;;;5058432;28;20467;-63
2022/01/24 04:29:24;;;;;;;12.18;8.43;;;5.50;99.90;;;;;;5075241;28;20033;-63
2022/01/24 04:31:50;;;;;;;13.35;8.45;;;5.40;99.90;;;;;;5057254;28;20507;-63
2022/01/24 04:34:15;;;;;;;14.23;8.35;;;5.40;99.90;;;;;;5075458;28;20040;-63
2022/01/24 04:36:41;;;;;;;12.80;8.15;;;5.40;99.90;;;;;;5057615;28;20051;-63
2022/01/24 04:39:07;;;;;;;12.30;8.23;;;5.30;99.90;;;;;;5075738;28;20047;-62
2022/01/24 04:41:37;;;;;;;12.10;8.02;;;5.40;99.90;;;;;;5075673;28;20479;-63
2022/01/24 04:54:42;;;;;;;13.43;8.48;;;5.30;99.90;;;;;;5056934;28;20126;-63
2022/01/24 04:57:13;;;;;;;12.35;8.10;;;5.20;99.90;;;;;;5075459;28;20040;-63
2022/01/24 04:59:40;;;;;;;11.68;8.80;;;;;;;;;;5059815;28;20048;-62
2022/01/24 05:02:06;;;;;;;11.32;8.35;;;5.30;99.90;;;;;;5053149;28;20040;-63
2022/01/24 05:04:32;;;;;;;12.02;7.53;;;5.20;99.90;;;;;;5073311;28;20494;-62
2022/01/24 05:06:58;;;;;;;12.80;8.88;;;;;;;;;;5091740;28;20040;-62
2022/01/24 05:09:25;;;;;;;12.50;8.30;;;5.20;99.90;;;;;;5080133;28;20063;-63
2022/01/24 05:11:56;;;;;;;11.07;8.27;;;5.20;99.90;;;;;;5076062;28;20067;-63
2022/01/24 05:25:19;;;;;;;12.77;8.05;;;5.30;99.90;;;;;;5049267;28;20514;-62
2022/01/24 05:27:45;;;;;;;12.63;8.15;;;;;;;;;;5067773;28;20040;-62
2022/01/24 05:30:12;;;;;;;13.00;8.35;;;5.40;99.90;;;;;;5088320;28;20127;-63
2022/01/24 05:32:38;;;;;;;14.85;8.55;;;5.30;99.90;;;;;;5066621;28;20032;-61
2022/01/24 05:35:04;;;;;;;13.18;8.18;;;5.40;99.90;;;;;;5064292;28;20043;-63
2022/01/24 05:37:29;;;;;;;11.20;7.95;;;5.30;99.90;;;;;;5074919;28;20071;-62
2022/01/24 05:39:55;;;;;;;13.90;9.15;;;5.30;99.90;;;;;;5050230;28;20383;-62
2022/01/24 05:42:21;;;;;;;13.63;8.20;;;;;;;;;;5071105;28;20035;-63
2022/01/24 05:44:52;;;;;;;13.15;8.35;;;5.20;99.90;;;;;;5074270;28;20501;-62
2022/01/24 05:47:18;;;;;;;13.88;9.18;;;5.30;99.90;;;;;;5092737;28;20044;-62
2022/01/24 05:49:44;;;;;;;15.50;8.73;;;5.40;99.90;;;;;;5092930;28;20040;-62
2022/01/24 05:52:10;;;;;;;13.77;9.85;;;5.20;99.90;;;;;;5053889;28;20032;-63
2022/01/24 05:54:40;;;;;;;18.35;11.73;;;;;;;;;;5051978;28;20093;-62
2022/01/24 05:57:06;;;;;;;20.95;11.73;;;5.30;99.90;;;;;;5052892;28;20083;-62
2022/01/24 05:59:32;;;;;;;17.15;10.55;;;;;;;;;;5072093;28;20024;-63
2022/01/24 06:01:58;;;;;;;15.07;9.50;;;5.30;99.90;;;;;;5081918;28;20078;-62
2022/01/24 06:04:24;;;;;;;16.45;10.07;;;5.50;99.90;;;;;;5092962;28;20075;-63
2022/01/24 06:06:49;;;;;;;16.05;9.43;;;5.50;99.90;;;;;;5092910;28;20044;-62
2022/01/24 06:09:15;;;;;;;16.92;9.82;;;5.30;99.90;;;;;;5092243;28;20323;-63
2022/01/24 06:11:41;;;;;;;15.88;9.52;;;5.30;99.90;;;;;;5080574;28;20060;-63
2022/01/24 06:14:07;;;;;;;14.75;9.82;;;;;;;;;;5076912;28;20044;-63
2022/01/24 06:16:33;;;;;;;15.38;10.10;;;5.40;99.90;;;;;;5072970;28;20042;-63
2022/01/24 06:18:58;;;;;;;13.68;9.35;;;5.30;99.90;;;;;;5074915;28;20393;-62
2022/01/24 06:21:24;;;;;;;15.63;9.38;;;5.40;99.90;;;;;;5075190;28;20126;-63
2022/01/24 06:23:49;;;;;;;13.90;9.43;;;5.30;99.90;;;;;;5074853;28;20040;-63
2022/01/24 06:26:15;;;;;;;16.67;10.13;;;5.30;99.90;;;;;;5090532;28;20502;-63
2022/01/24 06:28:41;;;;;;;15.73;9.80;;;;;;;;;;5087995;28;20128;-62
2022/01/24 06:31:06;;;;;;;14.48;8.60;;;5.30;99.90;;;;;;5089799;28;20039;-62
2022/01/24 06:33:33;;;;;;;14.93;9.60;;;5.30;99.90;;;;;;5069151;28;20089;-62
2022/01/24 06:35:59;;;;;;;14.38;9.65;;;5.30;99.90;;;;;;5072509;28;20028;-62
2022/01/24 06:38:24;;;;;;;16.67;10.63;;;5.30;99.90;;;;;;5074632;28;20064;-62
2022/01/24 06:40:51;;;;;;;15.35;9.90;;;5.40;99.90;;;;;;5076400;28;20075;-62
2022/01/24 06:43:16;;;;;;;15.15;9.80;;;5.50;99.90;;;;;;5053776;28;20871;-62
2022/01/24 06:45:42;;;;;;;17.05;9.45;;;;;;;;;;5074727;28;20124;-62
2022/01/24 06:48:08;;;;;;;13.55;8.93;;;5.40;99.90;;;;;;5079114;28;20554;-62
2022/01/24 06:50:34;;;;;;;12.13;8.13;;;5.30;99.90;;;;;;5058427;28;20033;-62
2022/01/24 06:53:00;;;;;;;14.38;8.85;;;5.30;99.90;;;;;;5054396;28;20094;-62
2022/01/24 06:55:25;;;;;;;15.10;9.00;;;5.30;99.90;;;;;;5058122;28;20040;-62
2022/01/24 06:57:51;;;;;;;14.77;9.05;;;5.20;99.90;;;;;;5075098;28;20040;-62
2022/01/24 07:00:17;;;;;;;17.67;10.25;;;5.10;99.90;;;;;;5075524;28;20032;-62
2022/01/24 07:02:42;;;;;;;17.30;11.45;;;5.30;99.90;;;;;;5070791;28;20541;-62
2022/01/24 07:05:08;;;;;;;19.77;11.35;;;5.20;99.90;;;;;;5061832;28;20453;-62
2022/01/24 07:07:34;;;;;;;23.63;13.65;;;5.30;99.90;;;;;;5064289;28;20037;-62
2022/01/24 07:10:00;;;;;;;25.25;13.77;;;5.30;99.90;;;;;;5064998;28;20086;-62
2022/01/24 07:12:26;;;;;;;21.73;12.85;;;5.30;99.90;;;;;;5053392;28;21034;-62
2022/01/24 07:14:52;;;;;;;18.90;12.52;;;5.20;99.90;;;;;;5068265;28;20129;-62
2022/01/24 07:19:49;;;;;;;21.25;13.07;;;5.30;99.90;;;;;;5060090;28;20045;-62
2022/01/24 07:22:15;;;;;;;20.10;11.73;;;5.30;99.90;;;;;;5068971;28;20055;-62
2022/01/24 07:24:41;;;;;;;20.65;12.95;;;5.20;99.90;;;;;;5061105;28;20066;-62
2022/01/24 07:27:07;;;;;;;22.42;12.02;;;5.20;99.90;;;;;;5053127;28;20040;-62
2022/01/24 07:29:32;;;;;;;22.80;12.68;;;5.20;99.90;;;;;;5061570;28;20182;-62
2022/01/24 07:31:58;;;;;;;17.65;11.30;;;5.40;99.90;;;;;;5062685;28;20045;-62
2022/01/24 07:34:24;;;;;;;22.55;13.23;;;5.30;99.90;;;;;;5067868;28;20041;-62
2022/01/24 07:36:51;;;;;;;21.33;12.63;;;;;;;;;;5052581;28;20047;-62
2022/01/24 07:39:17;;;;;;;18.98;12.38;;;5.20;99.90;;;;;;5068013;28;20048;-62
2022/01/24 07:41:46;;;;;;;23.73;11.80;;;5.10;99.90;;;;;;5054495;28;20041;-62
2022/01/24 07:44:13;;;;;;;21.50;12.55;;;5.10;99.90;;;;;;5065929;28;20106;-62
2022/01/24 07:46:39;;;;;;;23.98;12.82;;;5.20;99.90;;;;;;5065323;28;20041;-62
2022/01/24 07:49:07;;;;;;;20.98;12.13;;;;;;;;;;5062933;28;20066;-62
2022/01/24 07:51:33;;;;;;;22.02;13.07;;;5.20;99.90;;;;;;5067513;28;20048;-62
2022/01/24 07:53:59;;;;;;;23.30;13.40;;;5.30;99.90;;;;;;5072019;28;20398;-62
2022/01/24 07:56:24;;;;;;;21.85;13.38;;;5.20;99.90;;;;;;5052013;28;20041;-62
2022/01/24 07:58:50;;;;;;;23.95;13.57;;;5.20;99.90;;;;;;5066532;28;20064;-62
2022/01/24 08:01:16;;;;;;;24.25;14.15;;;5.20;99.90;;;;;;5056462;28;20037;-62
2022/01/24 08:03:43;;;;;;;25.38;14.20;;;5.20;99.90;;;;;;5068221;28;20040;-62
2022/01/24 08:06:09;;;;;;;24.95;13.65;;;5.20;99.90;;;;;;5063576;28;20036;-62
2022/01/24 08:08:35;;;;;;;23.85;14.25;;;5.20;99.90;;;;;;5052422;28;20052;-62
2022/01/24 08:11:00;;;;;;;26.88;14.82;;;5.20;99.90;;;;;;5058125;28;20132;-62
2022/01/24 08:13:26;;;;;;;26.40;13.90;;;;;;;;;;5063237;28;20055;-62
2022/01/24 08:15:52;;;;;;;23.35;14.00;;;5.10;99.90;;;;;;5066147;28;20049;-62
2022/01/24 08:18:17;;;;;;;26.25;14.77;;;5.20;99.90;;;;;;5062988;28;20489;-62
2022/01/24 08:20:43;;;;;;;29.40;15.05;;;;;;;;;;5062589;28;20039;-63
2022/01/24 08:23:10;;;;;;;29.98;16.92;;;5.20;99.90;;;;;;5063088;28;20041;-63
2022/01/24 08:25:35;;;;;;;25.13;14.90;;;5.20;99.90;;;;;;5072849;28;20040;-63
2022/01/24 08:28:01;;;;;;;26.27;14.57;;;;;;;;;;5061007;28;20043;-63
2022/01/24 08:30:28;;;;;;;30.38;16.52;;;5.20;99.90;;;;;;5054928;28;20089;-63
2022/01/24 08:32:54;;;;;;;32.92;17.38;;;;;;;;;;5058061;28;20052;-63
2022/01/24 08:35:20;;;;;;;32.35;18.30;;;;;;;;;;5080278;28;20032;-63
2022/01/24 08:37:46;;;;;;;31.85;17.63;;;5.10;99.90;;;;;;5077284;28;20068;-63
2022/01/24 08:40:20;;;;;;;32.00;17.33;;;;;;;;;;5049338;28;20043;-63
2022/01/24 08:42:55;;;;;;;32.92;18.38;;;5.30;99.90;;;;;;5064248;28;20032;-63
2022/01/24 08:48:06;;;;;;;35.60;18.93;;;5.30;99.90;;;;;;5054721;28;20403;-63
2022/01/24 08:50:32;;;;;;;34.95;19.15;;;;;;;;;;5077693;28;20032;-64
2022/01/24 08:52:59;;;;;;;43.45;21.30;;;5.30;99.90;;;;;;5082556;28;20037;-63
2022/01/24 08:55:28;;;;;;;34.10;19.48;;;;;;;;;;5084256;28;20043;-63
2022/01/24 08:57:55;;;;;;;41.20;21.05;;;5.30;99.90;;;;;;5059869;28;20509;-63
2022/01/24 09:00:21;;;;;;;39.20;20.65;;;5.40;99.90;;;;;;5074525;28;20067;-63
2022/01/24 09:02:47;;;;;;;39.67;21.52;;;5.40;99.90;;;;;;5079254;28;20040;-62
2022/01/24 09:05:13;;;;;;;36.80;19.75;;;;;;;;;;5071141;28;20104;-63
2022/01/24 09:07:39;;;;;;;38.95;20.55;;;5.40;99.90;;;;;;5078795;28;20073;-63
2022/01/24 09:10:06;;;;;;;42.40;21.65;;;5.50;99.90;;;;;;5075305;28;20035;-63
2022/01/24 09:12:32;;;;;;;43.97;21.77;;;;;;;;;;5055127;28;20052;-63
2022/01/24 09:14:58;;;;;;;44.30;22.30;;;5.50;99.90;;;;;;5049731;28;20567;-63
2022/01/24 09:17:23;;;;;;;44.63;21.98;;;5.50;99.90;;;;;;5055885;28;20037;-64
2022/01/24 09:19:49;;;;;;;43.72;22.73;;;;;;;;;;5059966;28;20490;-63
2022/01/24 09:22:15;;;;;;;41.42;23.02;;;5.40;99.90;;;;;;5050934;28;20052;-64
2022/01/24 09:24:40;;;;;;;45.75;23.63;;;5.50;99.90;;;;;;5059442;28;20041;-64
2022/01/24 09:27:06;;;;;;;45.85;24.20;;;5.50;99.90;;;;;;5052242;28;20041;-64
2022/01/24 09:29:32;;;;;;;50.70;26.50;;;5.50;99.90;;;;;;5057879;28;20441;-64
2022/01/24 09:31:58;;;;;;;57.35;28.25;;;;;;;;;;5059399;28;20044;-64
2022/01/24 09:34:24;;;;;;;54.67;27.15;;;;;;;;;;5061699;28;20124;-64
2022/01/24 09:36:50;;;;;;;56.17;28.40;;;5.50;99.90;;;;;;5044965;28;20086;-64
2022/01/24 09:39:17;;;;;;;57.63;27.50;;;5.50;99.90;;;;;;5049622;28;20499;-63
2022/01/24 09:41:43;;;;;;;49.30;25.73;;;5.60;99.90;;;;;;5067343;28;20045;-64
2022/01/24 09:44:09;;;;;;;47.67;25.88;;;;;;;;;;5060482;28;20041;-64
2022/01/24 09:46:37;;;;;;;52.60;27.33;;;5.60;99.90;;;;;;5064288;28;20044;-64
2022/01/24 09:49:04;;;;;;;51.72;25.60;;;;;;;;;;5049088;28;20041;-64
2022/01/24 09:51:29;;;;;;;53.50;28.30;;;5.50;99.90;;;;;;5061784;28;20127;-64
2022/01/24 09:53:56;;;;;;;55.60;30.40;;;5.60;99.90;;;;;;5074310;28;20109;-64
2022/01/24 09:56:22;;;;;;;51.70;28.50;;;5.60;99.90;;;;;;5075337;28;20076;-63
2022/01/24 09:58:47;;;;;;;55.50;29.10;;;5.60;99.90;;;;;;5078909;28;20488;-63
2022/01/24 10:01:15;;;;;;;56.20;29.13;;;5.70;99.90;;;;;;5059458;28;20090;-63
2022/01/24 10:04:01;;;;;;;52.72;27.52;;;;;;;;;;5077676;28;20062;-63
2022/01/24 10:06:27;;;;;;;57.00;31.65;;;;;;;;;;5061535;28;20125;-63
2022/01/24 10:08:52;;;;;;;53.25;28.25;;;5.70;99.90;;;;;;5084307;28;20067;-63
2022/01/24 10:11:18;;;;;;;54.10;29.63;;;;;;;;;;5079608;28;20052;-63
2022/01/24 10:16:36;;;;;;;52.75;29.90;;;5.70;99.90;;;;;;5075334;28;20126;-63
2022/01/24 10:19:03;;;;;;;59.13;29.58;;;5.80;99.90;;;;;;5083977;28;20039;-64
2022/01/24 10:21:29;;;;;;;59.03;31.27;;;5.80;99.90;;;;;;5065791;28;20412;-64
2022/01/24 10:23:56;;;;;;;55.95;30.08;;;5.70;99.90;;;;;;5084581;28;20083;-64
2022/01/24 10:26:24;;;;;;;54.67;29.33;;;5.80;99.90;;;;;;5078818;28;20131;-64
2022/01/24 10:28:50;;;;;;;33.08;19.80;;;5.80;99.90;;;;;;5083587;28;20401;-64
2022/01/24 10:31:24;;;;;;;47.72;26.65;;;5.70;99.90;;;;;;5067998;28;20032;-63
2022/01/24 10:34:05;;;;;;;48.63;27.85;;;5.80;99.90;;;;;;5065251;28;20045;-63
2022/01/24 10:36:39;;;;;;;54.13;30.02;;;5.80;99.90;;;;;;5071901;28;20406;-64
2022/01/24 10:39:12;;;;;;;55.58;28.92;;;5.80;99.90;;;;;;5055467;28;20126;-64
2022/01/24 10:44:26;;;;;;;53.05;29.30;;;5.80;99.90;;;;;;5063763;28;20053;-63
2022/01/24 10:46:52;;;;;;;40.92;22.67;;;5.90;99.90;;;;;;5052511;28;20067;-64
2022/01/24 10:49:31;;;;;;;50.05;26.52;;;5.70;99.90;;;;;;5052245;28;20045;-63
2022/01/24 10:52:09;;;;;;;53.55;28.88;;;5.80;99.90;;;;;;5061165;28;20391;-63
2022/01/24 10:54:35;;;;;;;53.80;29.50;;;;;;;;;;5049296;28;20406;-64
2022/01/24 10:57:01;;;;;;;43.50;24.98;;;5.90;99.90;;;;;;5055125;28;20560;-63
2022/01/24 10:59:27;;;;;;;34.30;19.92;;;5.90;99.90;;;;;;5066863;28;20076;-63
2022/01/24 11:02:01;;;;;;;40.45;22.15;;;6.00;99.90;;;;;;5056079;28;20135;-63
2022/01/24 11:04:28;;;;;;;44.83;25.45;;;;;;;;;;5056632;28;20048;-64
2022/01/24 11:06:59;;;;;;;46.35;25.27;;;6.10;99.90;;;;;;5035981;28;20041;-64
2022/01/24 11:09:36;;;;;;;36.38;21.70;;;6.00;99.90;;;;;;5078527;28;20039;-64
2022/01/24 11:12:11;;;;;;;28.85;17.58;;;6.00;99.90;;;;;;5049140;28;20063;-64
2022/01/24 11:14:38;;;;;;;31.55;19.05;;;;;;;;;;5050078;28;20075;-64
2022/01/24 11:17:07;;;;;;;35.88;20.65;;;5.90;99.90;;;;;;5051727;28;20088;-64
2022/01/24 11:19:41;;;;;;;38.72;20.48;;;;;;;;;;5061433;28;20044;-64
2022/01/24 11:22:18;;;;;;;36.20;21.30;;;6.00;99.90;;;;;;5055375;28;20106;-65
2022/01/24 11:24:53;;;;;;;33.70;20.88;;;6.10;99.90;;;;;;5048893;28;20279;-64
2022/01/24 11:27:19;;;;;;;35.00;21.27;;;6.00;99.90;;;;;;5048772;28;20040;-65
2022/01/24 11:29:45;;;;;;;39.03;23.00;;;6.00;99.90;;;;;;5059011;28;20047;-63
2022/01/24 11:32:44;;;;;;;39.67;23.10;;;;;;;;;;5053789;28;20099;-63
2022/01/24 11:35:10;;;;;;;38.60;22.90;;;6.00;99.90;;;;;;5005667;28;20056;-63
2022/01/24 11:37:36;;;;;;;39.58;22.83;;;;;;;;;;5051436;28;20113;-63
2022/01/24 11:40:04;;;;;;;38.05;23.17;;;;;;;;;;5051034;28;20532;-63
2022/01/24 11:42:33;;;;;;;42.72;26.67;;;;;;;;;;5059656;28;20569;-62
2022/01/24 11:45:04;;;;;;;40.53;22.88;;;;;;;;;;5056092;28;20041;-62
2022/01/24 11:47:31;;;;;;;41.47;24.15;;;6.00;99.90;;;;;;5057670;28;20049;-63
2022/01/24 11:49:57;;;;;;;36.55;23.83;;;;;;;;;;5062722;28;20048;-63
2022/01/24 11:52:32;;;;;;;41.70;25.08;;;6.20;99.90;;;;;;5045780;28;20486;-64
2022/01/24 11:55:31;;;;;;;42.10;25.33;;;6.20;99.90;;;;;;5048123;28;20112;-63
2022/01/24 11:58:05;;;;;;;36.40;22.92;;;6.00;99.90;;;;;;5048413;28;20063;-63
2022/01/24 12:00:44;;;;;;;44.75;25.60;;;6.00;99.90;;;;;;5076948;28;20498;-63
2022/01/24 12:03:26;;;;;;;42.40;25.92;;;6.00;99.90;;;;;;5075492;28;20059;-64
2022/01/24 12:05:53;;;;;;;46.58;25.42;;;6.10;99.90;;;;;;5079659;28;20127;-64
2022/01/24 12:08:42;;;;;;;42.72;24.77;;;6.00;99.90;;;;;;5063069;28;20430;-64
2022/01/24 12:11:23;;;;;;;39.33;24.35;;;6.00;99.90;;;;;;5081948;28;20052;-63
2022/01/24 12:14:11;;;;;;;45.42;26.10;;;;;;;;;;5076736;28;20041;-63
2022/01/24 12:16:39;;;;;;;43.40;25.23;;;6.10;99.90;;;;;;5076615;28;20162;-63
2022/01/24 12:19:06;;;;;;;38.35;24.40;;;6.00;99.90;;;;;;5082549;28;20037;-64
2022/01/24 12:21:34;;;;;;;38.42;23.65;;;6.20;99.90;;;;;;5058914;28;20068;-63
2022/01/24 12:24:09;;;;;;;41.22;23.60;;;6.00;99.90;;;;;;5052406;28;20537;-63
2022/01/24 12:26:39;;;;;;;38.63;23.83;;;;;;;;;;5050995;28;20079;-64
2022/01/24 12:29:20;;;;;;;45.13;26.15;;;6.10;99.90;;;;;;5052686;28;20052;-63
2022/01/24 12:31:50;;;;;;;45.17;26.27;;;5.90;99.90;;;;;;5064536;28;20041;-63
2022/01/24 12:34:23;;;;;;;48.47;27.48;;;6.10;99.90;;;;;;5052556;28;20063;-63
2022/01/24 12:37:04;;;;;;;43.60;26.88;;;6.20;99.90;;;;;;5071955;28;20493;-61
2022/01/24 12:39:37;;;;;;;53.15;30.13;;;6.10;99.90;;;;;;5056634;28;20040;-63
2022/01/24 12:42:12;;;;;;;46.13;26.67;;;6.10;99.90;;;;;;5049724;28;20086;-64
2022/01/24 12:47:12;;;;;;;42.25;25.40;;;6.10;99.90;;;;;;5068135;28;20114;-63
2022/01/24 12:49:39;;;;;;;47.38;26.75;;;6.00;99.90;;;;;;5050352;28;20049;-63
2022/01/24 12:52:10;;;;;;;48.22;27.65;;;;;;;;;;5050696;28;20060;-64
2022/01/24 12:54:38;;;;;;;45.35;26.92;;;6.00;99.90;;;;;;5067006;28;20119;-63
2022/01/24 12:57:06;;;;;;;44.90;27.40;;;6.00;99.90;;;;;;5061302;28;20062;-63
2022/01/24 12:59:33;;;;;;;46.78;25.20;;;6.10;99.90;;;;;;5051865;28;20040;-64
2022/01/24 13:02:02;;;;;;;48.45;25.63;;;5.90;99.90;;;;;;5071196;28;20387;-63
2022/01/24 13:04:37;;;;;;;43.88;24.95;;;;;;;;;;5051184;28;20596;-63
2022/01/24 13:07:03;;;;;;;47.75;29.02;;;;;;;;;;5061593;28;20406;-63
2022/01/24 13:09:29;;;;;;;47.50;28.65;;;6.10;99.90;;;;;;5081739;28;20088;-63
2022/01/24 13:11:58;;;;;;;42.92;26.20;;;;;;;;;;5062233;28;20467;-63
2022/01/24 13:14:35;;;;;;;44.85;26.33;;;6.00;99.90;;;;;;5060621;28;20047;-64
2022/01/24 13:25:12;;;;;;;46.47;26.77;;;6.00;99.90;;;;;;5083054;28;20040;-63
2022/01/24 13:27:47;;;;;;;43.80;26.48;;;6.20;99.90;;;;;;5065589;28;20040;-62
2022/01/24 13:30:13;;;;;;;;;;;;;;;;;;5081402;28;20131;-64
2022/01/24 13:32:46;;;;;;;46.20;27.60;;;6.20;99.90;;;;;;5056188;28;20379;-63
2022/01/24 13:35:26;;;;;;;46.20;27.17;;;6.30;99.90;;;;;;5051399;28;20045;-63
2022/01/24 13:37:55;;;;;;;46.00;26.25;;;;;;;;;;5057596;28;20052;-63
2022/01/24 13:40:32;;;;;;;47.08;27.52;;;;;;;;;;5062986;28;20037;-63
2022/01/24 13:42:58;;;;;;;50.63;27.73;;;;;;;;;;5054531;28;20055;-63
2022/01/24 13:45:24;;;;;;;51.25;27.63;;;;;;;;;;5047780;28;20084;-64
2022/01/24 13:47:57;;;;;;;47.63;28.02;;;;;;;;;;5062632;28;20569;-64
2022/01/24 13:50:23;;;;;;;47.15;28.40;;;6.00;99.90;;;;;;5080563;28;20036;-64
2022/01/24 13:52:49;;;;;;;45.40;27.55;;;6.10;99.90;;;;;;5062503;28;20417;-63
2022/01/24 13:55:20;;;;;;;50.00;27.67;;;6.40;99.90;;;;;;5075801;28;20126;-63
2022/01/24 13:57:47;;;;;;;51.40;27.10;;;;;;;;;;5076423;28;20049;-63
2022/01/24 14:00:15;;;;;;;42.80;25.95;;;5.90;99.90;;;;;;5061739;28;20100;-65
2022/01/24 14:02:41;;;;;;;41.30;25.40;;;6.10;99.90;;;;;;5058237;28;20045;-64
2022/01/24 14:05:09;;;;;;;46.53;26.85;;;6.20;99.90;;;;;;5054214;28;20044;-64
2022/01/24 14:07:42;;;;;;;44.13;26.77;;;6.00;99.90;;;;;;5079996;28;20040;-63
2022/01/24 14:10:11;;;;;;;48.03;27.20;;;5.90;99.90;;;;;;5077244;28;20033;-63
2022/01/24 14:12:43;;;;;;;46.30;28.45;;;6.10;99.90;;;;;;5071415;28;20059;-63
2022/01/24 14:17:46;;;;;;;44.90;26.17;;;6.00;99.90;;;;;;5062284;28;20494;-62
2022/01/24 14:20:16;;;;;;;46.45;28.10;;;;;;;;;;5083068;28;20054;-63
2022/01/24 14:22:51;;;;;;;48.83;26.48;;;5.90;99.90;;;;;;5077771;28;20135;-62
2022/01/24 14:25:25;;;;;;;51.22;27.25;;;6.00;99.90;;;;;;5076737;28;20036;-63
2022/01/24 14:27:55;;;;;;;46.95;26.15;;;;;;;;;;5063297;28;20044;-59
2022/01/24 14:30:30;;;;;;;47.00;26.58;;;5.90;99.90;;;;;;5066010;28;20040;-63
2022/01/24 14:33:01;;;;;;;49.65;27.85;;;;;;;;;;5073564;28;20040;-65
2022/01/24 14:35:30;;;;;;;46.15;27.65;;;;;;;;;;5058047;28;20044;-60
2022/01/24 14:37:56;;;;;;;47.08;27.42;;;;;;;;;;5053415;28;20401;-64
2022/01/24 14:40:49;;;;;;;48.15;26.85;;;5.70;99.90;;;;;;5058292;28;20055;-64
2022/01/24 14:46:07;;;;;;;43.97;25.67;;;5.90;99.90;;;;;;5072495;28;20072;-64
2022/01/24 14:48:55;;;;;;;45.20;26.45;;;5.90;99.90;;;;;;5080466;28;20043;-64
2022/01/24 14:51:24;;;;;;;43.28;25.75;;;;;;;;;;5056731;28;20402;-63
2022/01/24 14:53:52;;;;;;;42.45;24.77;;;5.80;99.90;;;;;;5064606;28;20075;-63
2022/01/24 14:56:18;;;;;;;43.10;26.65;;;;;;;;;;5076007;28;20032;-63
2022/01/24 14:58:44;;;;;;;46.92;27.50;;;5.80;99.90;;;;;;5057178;28;20097;-63
2022/01/24 15:01:10;;;;;;;46.45;27.38;;;6.00;99.90;;;;;;5084041;28;20123;-63